sensor_id;sensor_type;location;lat;lon;timestamp;temperature;humidity
16523;DHT22;19889;52.546;13.348;2023-05-10T00:00:48;16.20;82.60
16523;DHT22;19889;52.546;13.348;2023-05-10T00:03:15;16.20;82.60
16523;DHT22;19889;52.546;13.348;2023-05-10T00:05:41;16.20;82.80
16523;DHT22;19889;52.546;13.348;2023-05-10T00:08:08;16.10;82.80
16523;DHT22;19889;52.546;13.348;2023-05-10T00:10:35;16.10;83.00
16523;DHT22;19889;52.546;13.348;2023-05-10T00:13:03;16.00;83.10
16523;DHT22;19889;52.546;13.348;2023-05-10T00:15:29;16.00;84.10
16523;DHT22;19889;52.546;13.348;2023-05-10T00:17:58;16.00;83.40
16523;DHT22;19889;52.546;13.348;2023-05-10T00:20:25;15.90;83.50
16523;DHT22;19889;52.546;13.348;2023-05-10T00:22:52;15.90;83.70
16523;DHT22;19889;52.546;13.348;2023-05-10T00:25:19;15.90;83.70
16523;DHT22;19889;52.546;13.348;2023-05-10T00:27:47;15.90;83.80
16523;DHT22;19889;52.546;13.348;2023-05-10T00:30:14;15.90;83.90
16523;DHT22;19889;52.546;13.348;2023-05-10T00:32:41;15.80;84.70
16523;DHT22;19889;52.546;13.348;2023-05-10T00:35:10;15.80;84.00
16523;DHT22;19889;52.546;13.348;2023-05-10T00:37:37;15.80;84.00
16523;DHT22;19889;52.546;13.348;2023-05-10T00:40:05;15.80;84.10
16523;DHT22;19889;52.546;13.348;2023-05-10T00:42:32;15.70;84.20
16523;DHT22;19889;52.546;13.348;2023-05-10T00:44:59;15.70;84.30
16523;DHT22;19889;52.546;13.348;2023-05-10T00:47:26;15.70;84.40
16523;DHT22;19889;52.546;13.348;2023-05-10T00:49:53;15.60;85.20
16523;DHT22;19889;52.546;13.348;2023-05-10T00:52:22;15.60;84.60
16523;DHT22;19889;52.546;13.348;2023-05-10T00:54:50;15.60;84.70
16523;DHT22;19889;52.546;13.348;2023-05-10T00:57:18;15.50;84.80
16523;DHT22;19889;52.546;13.348;2023-05-10T00:59:46;15.50;85.00
16523;DHT22;19889;52.546;13.348;2023-05-10T01:02:13;15.40;85.80
16523;DHT22;19889;52.546;13.348;2023-05-10T01:04:40;15.40;85.10
16523;DHT22;19889;52.546;13.348;2023-05-10T01:07:07;15.40;85.40
16523;DHT22;19889;52.546;13.348;2023-05-10T01:09:35;15.30;85.40
16523;DHT22;19889;52.546;13.348;2023-05-10T01:12:03;15.30;85.50
16523;DHT22;19889;52.546;13.348;2023-05-10T01:14:32;15.30;85.60
16523;DHT22;19889;52.546;13.348;2023-05-10T01:17:01;15.30;85.60
16523;DHT22;19889;52.546;13.348;2023-05-10T01:19:29;15.30;85.60
16523;DHT22;19889;52.546;13.348;2023-05-10T01:22:04;15.30;85.60
16523;DHT22;19889;52.546;13.348;2023-05-10T01:24:53;15.30;85.70
16523;DHT22;19889;52.546;13.348;2023-05-10T01:27:54;15.20;85.90
16523;DHT22;19889;52.546;13.348;2023-05-10T01:33:26;15.20;86.00
16523;DHT22;19889;52.546;13.348;2023-05-10T01:36:00;15.20;86.00
16523;DHT22;19889;52.546;13.348;2023-05-10T01:38:32;15.10;86.10
16523;DHT22;19889;52.546;13.348;2023-05-10T01:41:08;15.10;86.20
16523;DHT22;19889;52.546;13.348;2023-05-10T01:43:43;15.10;86.40
16523;DHT22;19889;52.546;13.348;2023-05-10T01:46:17;15.20;86.60
16523;DHT22;19889;52.546;13.348;2023-05-10T01:48:52;15.00;86.60
16523;DHT22;19889;52.546;13.348;2023-05-10T01:51:23;15.00;86.80
16523;DHT22;19889;52.546;13.348;2023-05-10T01:53:58;15.00;86.80
16523;DHT22;19889;52.546;13.348;2023-05-10T01:56:26;15.00;86.90
16523;DHT22;19889;52.546;13.348;2023-05-10T01:58:55;15.00;86.90
16523;DHT22;19889;52.546;13.348;2023-05-10T02:01:24;15.00;87.00
16523;DHT22;19889;52.546;13.348;2023-05-10T02:03:53;15.00;87.10
16523;DHT22;19889;52.546;13.348;2023-05-10T02:06:24;14.90;87.20
16523;DHT22;19889;52.546;13.348;2023-05-10T02:08:53;14.90;87.30
16523;DHT22;19889;52.546;13.348;2023-05-10T02:11:20;14.90;87.40
16523;DHT22;19889;52.546;13.348;2023-05-10T02:13:49;14.90;87.50
16523;DHT22;19889;52.546;13.348;2023-05-10T02:16:18;14.90;87.60
16523;DHT22;19889;52.546;13.348;2023-05-10T02:18:50;14.80;87.60
16523;DHT22;19889;52.546;13.348;2023-05-10T02:21:21;14.80;87.70
16523;DHT22;19889;52.546;13.348;2023-05-10T02:23:50;14.80;87.80
16523;DHT22;19889;52.546;13.348;2023-05-10T02:26:19;14.80;88.80
16523;DHT22;19889;52.546;13.348;2023-05-10T02:28:49;14.80;88.00
16523;DHT22;19889;52.546;13.348;2023-05-10T02:31:17;15.00;88.20
16523;DHT22;19889;52.546;13.348;2023-05-10T02:33:45;14.70;88.20
16523;DHT22;19889;52.546;13.348;2023-05-10T02:36:13;14.70;88.30
16523;DHT22;19889;52.546;13.348;2023-05-10T02:38:41;14.60;88.20
16523;DHT22;19889;52.546;13.348;2023-05-10T02:41:10;14.60;88.40
16523;DHT22;19889;52.546;13.348;2023-05-10T02:43:39;14.60;88.50
16523;DHT22;19889;52.546;13.348;2023-05-10T02:46:07;14.60;88.60
16523;DHT22;19889;52.546;13.348;2023-05-10T02:48:35;14.60;88.70
16523;DHT22;19889;52.546;13.348;2023-05-10T02:51:05;14.60;88.70
16523;DHT22;19889;52.546;13.348;2023-05-10T02:53:36;14.60;88.70
16523;DHT22;19889;52.546;13.348;2023-05-10T02:56:12;14.50;88.90
16523;DHT22;19889;52.546;13.348;2023-05-10T02:58:41;14.50;89.00
16523;DHT22;19889;52.546;13.348;2023-05-10T03:01:08;14.40;89.00
16523;DHT22;19889;52.546;13.348;2023-05-10T03:03:35;14.40;89.10
16523;DHT22;19889;52.546;13.348;2023-05-10T03:06:03;14.40;89.10
16523;DHT22;19889;52.546;13.348;2023-05-10T03:08:30;14.40;89.40
16523;DHT22;19889;52.546;13.348;2023-05-10T03:11:12;14.30;89.40
16523;DHT22;19889;52.546;13.348;2023-05-10T03:13:52;14.30;89.60
16523;DHT22;19889;52.546;13.348;2023-05-10T03:16:26;14.30;89.70
16523;DHT22;19889;52.546;13.348;2023-05-10T03:18:56;14.30;89.90
16523;DHT22;19889;52.546;13.348;2023-05-10T03:21:29;14.30;89.80
16523;DHT22;19889;52.546;13.348;2023-05-10T03:24:06;14.30;89.80
16523;DHT22;19889;52.546;13.348;2023-05-10T03:26:37;14.20;89.80
16523;DHT22;19889;52.546;13.348;2023-05-10T03:29:10;14.20;89.90
16523;DHT22;19889;52.546;13.348;2023-05-10T03:31:38;14.10;90.00
16523;DHT22;19889;52.546;13.348;2023-05-10T03:34:05;14.10;90.00
16523;DHT22;19889;52.546;13.348;2023-05-10T03:36:32;14.10;90.10
16523;DHT22;19889;52.546;13.348;2023-05-10T03:39:00;14.00;90.10
16523;DHT22;19889;52.546;13.348;2023-05-10T03:41:27;14.00;90.10
16523;DHT22;19889;52.546;13.348;2023-05-10T03:43:57;14.00;90.20
16523;DHT22;19889;52.546;13.348;2023-05-10T03:46:24;14.00;90.30
16523;DHT22;19889;52.546;13.348;2023-05-10T03:48:51;14.10;90.30
16523;DHT22;19889;52.546;13.348;2023-05-10T03:51:17;14.00;90.20
16523;DHT22;19889;52.546;13.348;2023-05-10T03:53:44;14.00;90.30
16523;DHT22;19889;52.546;13.348;2023-05-10T03:56:12;13.90;90.60
16523;DHT22;19889;52.546;13.348;2023-05-10T03:58:39;13.90;90.30
16523;DHT22;19889;52.546;13.348;2023-05-10T04:01:07;13.90;90.40
16523;DHT22;19889;52.546;13.348;2023-05-10T04:03:34;13.90;90.40
16523;DHT22;19889;52.546;13.348;2023-05-10T04:06:02;13.90;90.50
16523;DHT22;19889;52.546;13.348;2023-05-10T04:08:29;13.90;90.50
16523;DHT22;19889;52.546;13.348;2023-05-10T04:11:05;13.90;90.50
16523;DHT22;19889;52.546;13.348;2023-05-10T04:13:32;13.80;90.50
16523;DHT22;19889;52.546;13.348;2023-05-10T04:15:59;13.80;90.50
16523;DHT22;19889;52.546;13.348;2023-05-10T04:18:27;13.80;90.50
16523;DHT22;19889;52.546;13.348;2023-05-10T04:20:54;14.00;90.70
16523;DHT22;19889;52.546;13.348;2023-05-10T04:23:21;13.80;90.60
16523;DHT22;19889;52.546;13.348;2023-05-10T04:25:48;13.80;90.60
16523;DHT22;19889;52.546;13.348;2023-05-10T04:28:15;13.90;91.00
16523;DHT22;19889;52.546;13.348;2023-05-10T04:30:42;13.80;90.60
16523;DHT22;19889;52.546;13.348;2023-05-10T04:33:09;13.80;90.70
16523;DHT22;19889;52.546;13.348;2023-05-10T04:35:37;13.90;90.70
16523;DHT22;19889;52.546;13.348;2023-05-10T04:38:05;13.90;90.70
16523;DHT22;19889;52.546;13.348;2023-05-10T04:40:32;13.90;90.70
16523;DHT22;19889;52.546;13.348;2023-05-10T04:42:59;13.90;90.70
16523;DHT22;19889;52.546;13.348;2023-05-10T04:45:26;13.90;90.70
16523;DHT22;19889;52.546;13.348;2023-05-10T04:47:53;14.00;90.70
16523;DHT22;19889;52.546;13.348;2023-05-10T04:50:20;14.00;90.70
16523;DHT22;19889;52.546;13.348;2023-05-10T04:52:48;14.00;90.70
16523;DHT22;19889;52.546;13.348;2023-05-10T04:55:16;14.10;90.80
16523;DHT22;19889;52.546;13.348;2023-05-10T04:57:43;14.00;90.80
16523;DHT22;19889;52.546;13.348;2023-05-10T05:00:11;14.00;90.80
16523;DHT22;19889;52.546;13.348;2023-05-10T05:02:38;14.00;90.80
16523;DHT22;19889;52.546;13.348;2023-05-10T05:05:06;14.00;90.80
16523;DHT22;19889;52.546;13.348;2023-05-10T05:07:33;14.00;90.90
16523;DHT22;19889;52.546;13.348;2023-05-10T05:10:01;14.00;91.20
16523;DHT22;19889;52.546;13.348;2023-05-10T05:12:28;14.00;90.90
16523;DHT22;19889;52.546;13.348;2023-05-10T05:14:56;14.00;90.90
16523;DHT22;19889;52.546;13.348;2023-05-10T05:17:23;14.00;90.90
16523;DHT22;19889;52.546;13.348;2023-05-10T05:19:50;14.10;91.00
16523;DHT22;19889;52.546;13.348;2023-05-10T05:22:17;14.10;91.00
16523;DHT22;19889;52.546;13.348;2023-05-10T05:24:45;14.10;91.00
16523;DHT22;19889;52.546;13.348;2023-05-10T05:27:13;14.10;91.00
16523;DHT22;19889;52.546;13.348;2023-05-10T05:29:40;14.10;91.00
16523;DHT22;19889;52.546;13.348;2023-05-10T05:32:07;14.10;91.00
16523;DHT22;19889;52.546;13.348;2023-05-10T05:34:34;14.20;91.10
16523;DHT22;19889;52.546;13.348;2023-05-10T05:37:01;14.20;91.10
16523;DHT22;19889;52.546;13.348;2023-05-10T05:39:28;14.20;91.10
16523;DHT22;19889;52.546;13.348;2023-05-10T05:41:55;14.20;91.20
16523;DHT22;19889;52.546;13.348;2023-05-10T05:44:23;14.70;91.30
16523;DHT22;19889;52.546;13.348;2023-05-10T05:46:51;14.20;91.10
16523;DHT22;19889;52.546;13.348;2023-05-10T05:49:18;14.30;91.20
16523;DHT22;19889;52.546;13.348;2023-05-10T05:51:44;14.30;91.20
16523;DHT22;19889;52.546;13.348;2023-05-10T05:54:11;14.30;91.20
16523;DHT22;19889;52.546;13.348;2023-05-10T05:56:38;14.30;91.20
16523;DHT22;19889;52.546;13.348;2023-05-10T05:59:05;14.40;91.20
16523;DHT22;19889;52.546;13.348;2023-05-10T06:01:34;14.30;91.20
16523;DHT22;19889;52.546;13.348;2023-05-10T06:04:01;14.40;91.30
16523;DHT22;19889;52.546;13.348;2023-05-10T06:06:28;14.40;91.30
16523;DHT22;19889;52.546;13.348;2023-05-10T06:08:55;14.50;91.30
16523;DHT22;19889;52.546;13.348;2023-05-10T06:11:22;14.50;91.30
16523;DHT22;19889;52.546;13.348;2023-05-10T06:13:50;14.50;91.30
16523;DHT22;19889;52.546;13.348;2023-05-10T06:16:17;14.60;91.20
16523;DHT22;19889;52.546;13.348;2023-05-10T06:18:45;14.60;91.20
16523;DHT22;19889;52.546;13.348;2023-05-10T06:21:12;14.70;91.30
16523;DHT22;19889;52.546;13.348;2023-05-10T06:23:40;14.70;91.20
16523;DHT22;19889;52.546;13.348;2023-05-10T06:26:07;14.80;91.20
16523;DHT22;19889;52.546;13.348;2023-05-10T06:28:34;14.80;91.20
16523;DHT22;19889;52.546;13.348;2023-05-10T06:31:03;14.80;91.20
16523;DHT22;19889;52.546;13.348;2023-05-10T06:33:30;14.90;91.20
16523;DHT22;19889;52.546;13.348;2023-05-10T06:35:59;15.10;91.30
16523;DHT22;19889;52.546;13.348;2023-05-10T06:38:26;15.20;91.20
16523;DHT22;19889;52.546;13.348;2023-05-10T06:40:53;15.20;91.10
16523;DHT22;19889;52.546;13.348;2023-05-10T06:43:20;15.30;91.00
16523;DHT22;19889;52.546;13.348;2023-05-10T06:45:47;15.30;91.00
16523;DHT22;19889;52.546;13.348;2023-05-10T06:48:14;15.30;91.00
16523;DHT22;19889;52.546;13.348;2023-05-10T06:50:41;15.20;90.90
16523;DHT22;19889;52.546;13.348;2023-05-10T06:53:11;15.50;91.10
16523;DHT22;19889;52.546;13.348;2023-05-10T06:55:39;15.70;91.10
16523;DHT22;19889;52.546;13.348;2023-05-10T06:58:06;15.90;91.00
16523;DHT22;19889;52.546;13.348;2023-05-10T07:00:33;15.90;90.70
16523;DHT22;19889;52.546;13.348;2023-05-10T07:03:00;16.00;90.70
16523;DHT22;19889;52.546;13.348;2023-05-10T07:05:27;16.20;90.70
16523;DHT22;19889;52.546;13.348;2023-05-10T07:07:55;16.20;90.60
16523;DHT22;19889;52.546;13.348;2023-05-10T07:10:23;16.30;90.50
16523;DHT22;19889;52.546;13.348;2023-05-10T07:12:50;16.40;90.40
16523;DHT22;19889;52.546;13.348;2023-05-10T07:15:17;16.40;90.30
16523;DHT22;19889;52.546;13.348;2023-05-10T07:17:44;16.40;90.30
16523;DHT22;19889;52.546;13.348;2023-05-10T07:20:12;16.40;90.30
16523;DHT22;19889;52.546;13.348;2023-05-10T07:22:39;16.40;90.20
16523;DHT22;19889;52.546;13.348;2023-05-10T07:25:07;16.30;90.10
16523;DHT22;19889;52.546;13.348;2023-05-10T07:27:35;15.50;90.00
16523;DHT22;19889;52.546;13.348;2023-05-10T07:30:03;16.40;90.50
16523;DHT22;19889;52.546;13.348;2023-05-10T07:32:30;16.40;90.20
16523;DHT22;19889;52.546;13.348;2023-05-10T07:34:57;16.40;90.30
16523;DHT22;19889;52.546;13.348;2023-05-10T07:37:24;16.40;90.30
16523;DHT22;19889;52.546;13.348;2023-05-10T07:39:51;16.50;90.30
16523;DHT22;19889;52.546;13.348;2023-05-10T07:42:18;16.50;90.20
16523;DHT22;19889;52.546;13.348;2023-05-10T07:44:46;16.50;90.20
16523;DHT22;19889;52.546;13.348;2023-05-10T07:47:13;16.50;90.10
16523;DHT22;19889;52.546;13.348;2023-05-10T07:49:40;16.60;90.20
16523;DHT22;19889;52.546;13.348;2023-05-10T07:52:07;16.60;90.10
16523;DHT22;19889;52.546;13.348;2023-05-10T07:54:34;16.70;90.20
16523;DHT22;19889;52.546;13.348;2023-05-10T07:57:01;16.70;90.20
16523;DHT22;19889;52.546;13.348;2023-05-10T07:59:28;16.70;90.20
16523;DHT22;19889;52.546;13.348;2023-05-10T08:01:56;16.80;90.30
16523;DHT22;19889;52.546;13.348;2023-05-10T08:04:23;16.80;90.20
16523;DHT22;19889;52.546;13.348;2023-05-10T08:06:50;16.80;90.10
16523;DHT22;19889;52.546;13.348;2023-05-10T08:09:17;16.90;90.20
16523;DHT22;19889;52.546;13.348;2023-05-10T08:11:49;17.00;90.20
16523;DHT22;19889;52.546;13.348;2023-05-10T08:14:16;16.90;90.20
16523;DHT22;19889;52.546;13.348;2023-05-10T08:16:43;17.00;90.20
16523;DHT22;19889;52.546;13.348;2023-05-10T08:19:12;17.20;90.30
16523;DHT22;19889;52.546;13.348;2023-05-10T08:21:39;17.30;90.20
16523;DHT22;19889;52.546;13.348;2023-05-10T08:24:07;17.40;90.00
16523;DHT22;19889;52.546;13.348;2023-05-10T08:26:35;17.50;89.90
16523;DHT22;19889;52.546;13.348;2023-05-10T08:29:02;17.50;89.70
16523;DHT22;19889;52.546;13.348;2023-05-10T08:31:29;17.60;89.40
16523;DHT22;19889;52.546;13.348;2023-05-10T08:33:56;17.70;89.40
16523;DHT22;19889;52.546;13.348;2023-05-10T08:36:24;17.70;89.20
16523;DHT22;19889;52.546;13.348;2023-05-10T08:38:52;17.70;89.10
16523;DHT22;19889;52.546;13.348;2023-05-10T08:41:20;17.70;88.90
16523;DHT22;19889;52.546;13.348;2023-05-10T08:43:47;17.70;88.70
16523;DHT22;19889;52.546;13.348;2023-05-10T08:46:16;17.70;88.60
16523;DHT22;19889;52.546;13.348;2023-05-10T08:48:44;17.70;88.50
16523;DHT22;19889;52.546;13.348;2023-05-10T08:51:13;17.70;88.60
16523;DHT22;19889;52.546;13.348;2023-05-10T08:53:42;17.80;88.80
16523;DHT22;19889;52.546;13.348;2023-05-10T08:56:09;17.90;89.20
16523;DHT22;19889;52.546;13.348;2023-05-10T08:58:36;18.20;89.50
16523;DHT22;19889;52.546;13.348;2023-05-10T09:01:04;18.60;89.40
16523;DHT22;19889;52.546;13.348;2023-05-10T09:08:28;20.30;87.30
16523;DHT22;19889;52.546;13.348;2023-05-10T09:10:58;21.00;87.10
16523;DHT22;19889;52.546;13.348;2023-05-10T09:13:25;21.80;89.10
16523;DHT22;19889;52.546;13.348;2023-05-10T09:15:53;21.80;83.00
16523;DHT22;19889;52.546;13.348;2023-05-10T09:18:20;21.80;81.20
16523;DHT22;19889;52.546;13.348;2023-05-10T09:20:48;21.50;80.60
16523;DHT22;19889;52.546;13.348;2023-05-10T09:23:15;21.20;80.30
16523;DHT22;19889;52.546;13.348;2023-05-10T09:25:42;21.00;80.20
16523;DHT22;19889;52.546;13.348;2023-05-10T09:28:11;20.70;80.20
16523;DHT22;19889;52.546;13.348;2023-05-10T09:30:38;20.50;80.80
16523;DHT22;19889;52.546;13.348;2023-05-10T09:33:05;20.30;81.40
16523;DHT22;19889;52.546;13.348;2023-05-10T09:35:33;20.10;81.70
16523;DHT22;19889;52.546;13.348;2023-05-10T09:38:03;19.90;81.90
16523;DHT22;19889;52.546;13.348;2023-05-10T09:40:31;19.80;82.00
16523;DHT22;19889;52.546;13.348;2023-05-10T09:42:59;19.70;82.10
16523;DHT22;19889;52.546;13.348;2023-05-10T09:45:29;19.60;82.40
16523;DHT22;19889;52.546;13.348;2023-05-10T09:47:56;19.50;82.60
16523;DHT22;19889;52.546;13.348;2023-05-10T09:50:25;19.40;82.70
16523;DHT22;19889;52.546;13.348;2023-05-10T09:52:54;19.30;82.70
16523;DHT22;19889;52.546;13.348;2023-05-10T09:55:23;19.30;83.00
16523;DHT22;19889;52.546;13.348;2023-05-10T09:57:59;19.20;83.30
16523;DHT22;19889;52.546;13.348;2023-05-10T10:00:27;19.20;83.60
16523;DHT22;19889;52.546;13.348;2023-05-10T10:02:55;19.10;83.60
16523;DHT22;19889;52.546;13.348;2023-05-10T10:05:28;19.10;83.80
16523;DHT22;19889;52.546;13.348;2023-05-10T10:07:56;19.10;84.10
16523;DHT22;19889;52.546;13.348;2023-05-10T10:10:23;19.10;84.00
16523;DHT22;19889;52.546;13.348;2023-05-10T10:12:51;19.10;84.00
16523;DHT22;19889;52.546;13.348;2023-05-10T10:15:18;19.10;84.10
16523;DHT22;19889;52.546;13.348;2023-05-10T10:17:46;19.10;84.50
16523;DHT22;19889;52.546;13.348;2023-05-10T10:20:15;19.10;84.60
16523;DHT22;19889;52.546;13.348;2023-05-10T10:22:42;19.10;84.60
16523;DHT22;19889;52.546;13.348;2023-05-10T10:25:11;19.10;84.80
16523;DHT22;19889;52.546;13.348;2023-05-10T10:27:45;19.90;85.40
16523;DHT22;19889;52.546;13.348;2023-05-10T10:30:21;19.10;84.80
16523;DHT22;19889;52.546;13.348;2023-05-10T10:35:59;19.20;84.80
16523;DHT22;19889;52.546;13.348;2023-05-10T10:38:36;19.20;84.90
16523;DHT22;19889;52.546;13.348;2023-05-10T10:41:09;19.30;84.70
16523;DHT22;19889;52.546;13.348;2023-05-10T10:43:36;19.30;84.40
16523;DHT22;19889;52.546;13.348;2023-05-10T10:46:13;19.30;84.30
16523;DHT22;19889;52.546;13.348;2023-05-10T10:48:47;19.30;84.20
16523;DHT22;19889;52.546;13.348;2023-05-10T10:51:15;19.40;84.40
16523;DHT22;19889;52.546;13.348;2023-05-10T10:53:43;19.30;84.30
16523;DHT22;19889;52.546;13.348;2023-05-10T10:56:11;19.30;84.00
16523;DHT22;19889;52.546;13.348;2023-05-10T10:58:40;19.30;84.20
16523;DHT22;19889;52.546;13.348;2023-05-10T11:01:12;19.40;84.20
16523;DHT22;19889;52.546;13.348;2023-05-10T11:03:54;19.40;84.10
16523;DHT22;19889;52.546;13.348;2023-05-10T11:06:29;19.40;84.10
16523;DHT22;19889;52.546;13.348;2023-05-10T11:08:57;19.50;83.80
16523;DHT22;19889;52.546;13.348;2023-05-10T11:11:24;19.50;83.70
16523;DHT22;19889;52.546;13.348;2023-05-10T11:13:51;19.50;83.70
16523;DHT22;19889;52.546;13.348;2023-05-10T11:16:19;19.50;83.40
16523;DHT22;19889;52.546;13.348;2023-05-10T11:18:54;19.50;83.50
16523;DHT22;19889;52.546;13.348;2023-05-10T11:21:23;19.60;83.60
16523;DHT22;19889;52.546;13.348;2023-05-10T11:23:51;19.60;84.50
16523;DHT22;19889;52.546;13.348;2023-05-10T11:26:21;19.60;83.90
16523;DHT22;19889;52.546;13.348;2023-05-10T11:28:52;19.70;83.90
16523;DHT22;19889;52.546;13.348;2023-05-10T11:31:21;19.70;82.90
16523;DHT22;19889;52.546;13.348;2023-05-10T11:33:50;19.80;82.20
16523;DHT22;19889;52.546;13.348;2023-05-10T11:36:20;19.80;82.40
16523;DHT22;19889;52.546;13.348;2023-05-10T11:38:47;19.80;83.20
16523;DHT22;19889;52.546;13.348;2023-05-10T11:41:17;19.90;82.60
16523;DHT22;19889;52.546;13.348;2023-05-10T11:43:46;19.90;82.60
16523;DHT22;19889;52.546;13.348;2023-05-10T11:46:14;19.90;82.40
16523;DHT22;19889;52.546;13.348;2023-05-10T11:48:42;20.00;82.20
16523;DHT22;19889;52.546;13.348;2023-05-10T11:51:10;20.00;82.20
16523;DHT22;19889;52.546;13.348;2023-05-10T11:53:39;20.00;83.10
16523;DHT22;19889;52.546;13.348;2023-05-10T11:56:06;20.00;82.20
16523;DHT22;19889;52.546;13.348;2023-05-10T11:58:34;20.00;82.00
16523;DHT22;19889;52.546;13.348;2023-05-10T12:01:02;20.10;82.00
16523;DHT22;19889;52.546;13.348;2023-05-10T12:03:30;20.00;82.20
16523;DHT22;19889;52.546;13.348;2023-05-10T12:05:58;20.10;82.40
16523;DHT22;19889;52.546;13.348;2023-05-10T12:08:27;20.10;82.40
16523;DHT22;19889;52.546;13.348;2023-05-10T12:11:06;20.10;82.30
16523;DHT22;19889;52.546;13.348;2023-05-10T12:13:37;20.20;81.30
16523;DHT22;19889;52.546;13.348;2023-05-10T12:16:12;20.20;81.30
16523;DHT22;19889;52.546;13.348;2023-05-10T12:18:40;20.20;81.00
16523;DHT22;19889;52.546;13.348;2023-05-10T12:21:09;20.30;80.80
16523;DHT22;19889;52.546;13.348;2023-05-10T12:23:37;20.30;80.80
16523;DHT22;19889;52.546;13.348;2023-05-10T12:26:06;20.30;80.90
16523;DHT22;19889;52.546;13.348;2023-05-10T12:28:33;20.30;80.90
16523;DHT22;19889;52.546;13.348;2023-05-10T12:31:01;20.30;80.80
16523;DHT22;19889;52.546;13.348;2023-05-10T12:33:35;20.40;81.30
16523;DHT22;19889;52.546;13.348;2023-05-10T12:36:05;20.40;80.60
16523;DHT22;19889;52.546;13.348;2023-05-10T12:38:33;20.50;80.70
16523;DHT22;19889;52.546;13.348;2023-05-10T12:41:01;20.50;80.60
16523;DHT22;19889;52.546;13.348;2023-05-10T12:43:30;20.50;80.50
16523;DHT22;19889;52.546;13.348;2023-05-10T12:45:57;20.50;80.50
16523;DHT22;19889;52.546;13.348;2023-05-10T12:48:24;20.50;80.60
16523;DHT22;19889;52.546;13.348;2023-05-10T12:50:51;20.50;80.70
16523;DHT22;19889;52.546;13.348;2023-05-10T12:53:18;20.60;80.80
16523;DHT22;19889;52.546;13.348;2023-05-10T12:55:45;20.60;80.70
16523;DHT22;19889;52.546;13.348;2023-05-10T12:58:12;20.60;80.80
16523;DHT22;19889;52.546;13.348;2023-05-10T13:00:40;20.70;80.80
16523;DHT22;19889;52.546;13.348;2023-05-10T13:03:08;20.70;80.80
16523;DHT22;19889;52.546;13.348;2023-05-10T13:05:37;20.70;81.00
16523;DHT22;19889;52.546;13.348;2023-05-10T13:08:03;20.80;81.20
16523;DHT22;19889;52.546;13.348;2023-05-10T13:10:31;20.80;81.30
16523;DHT22;19889;52.546;13.348;2023-05-10T13:12:58;20.80;81.20
16523;DHT22;19889;52.546;13.348;2023-05-10T13:15:25;20.80;81.00
16523;DHT22;19889;52.546;13.348;2023-05-10T13:17:54;20.90;81.60
16523;DHT22;19889;52.546;13.348;2023-05-10T13:20:21;20.90;80.70
16523;DHT22;19889;52.546;13.348;2023-05-10T13:22:49;20.90;80.60
16523;DHT22;19889;52.546;13.348;2023-05-10T13:25:16;20.90;80.10
16523;DHT22;19889;52.546;13.348;2023-05-10T13:27:43;20.90;79.80
16523;DHT22;19889;52.546;13.348;2023-05-10T13:30:10;20.90;79.60
16523;DHT22;19889;52.546;13.348;2023-05-10T13:32:38;21.00;79.60
16523;DHT22;19889;52.546;13.348;2023-05-10T13:35:07;21.00;79.60
16523;DHT22;19889;52.546;13.348;2023-05-10T13:37:34;21.00;79.80
16523;DHT22;19889;52.546;13.348;2023-05-10T13:40:03;21.00;79.90
16523;DHT22;19889;52.546;13.348;2023-05-10T13:42:30;21.10;80.00
16523;DHT22;19889;52.546;13.348;2023-05-10T13:44:59;21.10;80.00
16523;DHT22;19889;52.546;13.348;2023-05-10T13:47:27;21.10;79.80
16523;DHT22;19889;52.546;13.348;2023-05-10T13:49:54;21.10;79.30
16523;DHT22;19889;52.546;13.348;2023-05-10T13:52:23;21.10;79.10
16523;DHT22;19889;52.546;13.348;2023-05-10T13:54:50;21.10;78.70
16523;DHT22;19889;52.546;13.348;2023-05-10T13:57:20;21.10;78.20
16523;DHT22;19889;52.546;13.348;2023-05-10T13:59:47;21.20;78.10
16523;DHT22;19889;52.546;13.348;2023-05-10T14:02:14;21.20;77.80
16523;DHT22;19889;52.546;13.348;2023-05-10T14:04:41;21.30;77.70
16523;DHT22;19889;52.546;13.348;2023-05-10T14:07:08;21.30;77.70
16523;DHT22;19889;52.546;13.348;2023-05-10T14:09:37;21.30;77.60
16523;DHT22;19889;52.546;13.348;2023-05-10T14:12:04;21.30;77.80
16523;DHT22;19889;52.546;13.348;2023-05-10T14:14:31;21.40;77.90
16523;DHT22;19889;52.546;13.348;2023-05-10T14:16:58;21.40;77.50
16523;DHT22;19889;52.546;13.348;2023-05-10T14:19:25;21.30;76.30
16523;DHT22;19889;52.546;13.348;2023-05-10T14:21:52;21.40;75.30
16523;DHT22;19889;52.546;13.348;2023-05-10T14:24:19;21.40;75.00
16523;DHT22;19889;52.546;13.348;2023-05-10T14:26:47;21.40;75.00
16523;DHT22;19889;52.546;13.348;2023-05-10T14:29:14;21.40;75.30
16523;DHT22;19889;52.546;13.348;2023-05-10T14:31:41;21.40;76.20
16523;DHT22;19889;52.546;13.348;2023-05-10T14:34:08;21.40;75.50
16523;DHT22;19889;52.546;13.348;2023-05-10T14:36:35;21.40;76.50
16523;DHT22;19889;52.546;13.348;2023-05-10T14:39:02;21.40;75.00
16523;DHT22;19889;52.546;13.348;2023-05-10T14:41:29;21.40;74.90
16523;DHT22;19889;52.546;13.348;2023-05-10T14:43:57;21.50;74.00
16523;DHT22;19889;52.546;13.348;2023-05-10T14:46:24;21.50;73.90
16523;DHT22;19889;52.546;13.348;2023-05-10T14:48:52;21.50;73.70
16523;DHT22;19889;52.546;13.348;2023-05-10T14:51:19;21.50;73.50
16523;DHT22;19889;52.546;13.348;2023-05-10T14:53:47;21.50;73.10
16523;DHT22;19889;52.546;13.348;2023-05-10T14:56:14;21.50;73.10
16523;DHT22;19889;52.546;13.348;2023-05-10T14:58:41;21.50;73.20
16523;DHT22;19889;52.546;13.348;2023-05-10T15:01:10;21.50;73.30
16523;DHT22;19889;52.546;13.348;2023-05-10T15:03:37;21.50;73.40
16523;DHT22;19889;52.546;13.348;2023-05-10T15:06:05;21.50;73.40
16523;DHT22;19889;52.546;13.348;2023-05-10T15:08:32;21.50;73.60
16523;DHT22;19889;52.546;13.348;2023-05-10T15:10:59;21.40;73.60
16523;DHT22;19889;52.546;13.348;2023-05-10T15:13:26;21.40;73.80
16523;DHT22;19889;52.546;13.348;2023-05-10T15:15:53;21.40;73.80
16523;DHT22;19889;52.546;13.348;2023-05-10T15:18:21;21.40;73.70
16523;DHT22;19889;52.546;13.348;2023-05-10T15:20:48;21.40;73.30
16523;DHT22;19889;52.546;13.348;2023-05-10T15:23:15;21.40;73.40
16523;DHT22;19889;52.546;13.348;2023-05-10T15:25:42;21.40;73.40
16523;DHT22;19889;52.546;13.348;2023-05-10T15:28:09;21.40;73.50
16523;DHT22;19889;52.546;13.348;2023-05-10T15:30:36;21.40;73.40
16523;DHT22;19889;52.546;13.348;2023-05-10T15:33:03;21.30;73.40